sensor_id;sensor_type;location;lat;lon;timestamp;pressure;altitude;pressure_sealevel;temperature
12875;BMP180;6505;51.114;13.128;2023-07-20T00:01:11;99166.00;;;26.40
12875;BMP180;6505;51.114;13.128;2023-07-20T00:03:41;99167.00;;;26.40
12875;BMP180;6505;51.114;13.128;2023-07-20T00:06:12;99169.00;;;26.40
12875;BMP180;6505;51.114;13.128;2023-07-20T00:08:44;99170.00;;;26.30
12875;BMP180;6505;51.114;13.128;2023-07-20T00:11:14;99165.00;;;26.30
12875;BMP180;6505;51.114;13.128;2023-07-20T00:13:44;99168.00;;;26.30
12875;BMP180;6505;51.114;13.128;2023-07-20T00:16:12;99166.00;;;26.30
12875;BMP180;6505;51.114;13.128;2023-07-20T00:18:40;99163.00;;;26.30
12875;BMP180;6505;51.114;13.128;2023-07-20T00:21:09;99152.00;;;26.30
12875;BMP180;6505;51.114;13.128;2023-07-20T00:23:38;99156.00;;;26.30
12875;BMP180;6505;51.114;13.128;2023-07-20T00:26:07;99162.00;;;26.20
12875;BMP180;6505;51.114;13.128;2023-07-20T00:28:35;99165.00;;;26.20
12875;BMP180;6505;51.114;13.128;2023-07-20T00:31:04;99165.00;;;26.20
12875;BMP180;6505;51.114;13.128;2023-07-20T00:33:32;99164.00;;;26.20
12875;BMP180;6505;51.114;13.128;2023-07-20T00:36:01;99158.00;;;26.20
12875;BMP180;6505;51.114;13.128;2023-07-20T00:38:29;99158.00;;;26.20
12875;BMP180;6505;51.114;13.128;2023-07-20T00:40:57;99160.00;;;26.20
12875;BMP180;6505;51.114;13.128;2023-07-20T00:43:26;99165.00;;;26.20
12875;BMP180;6505;51.114;13.128;2023-07-20T00:45:55;99163.00;;;26.10
12875;BMP180;6505;51.114;13.128;2023-07-20T00:48:23;99169.00;;;26.10
12875;BMP180;6505;51.114;13.128;2023-07-20T00:50:52;99176.00;;;26.10
12875;BMP180;6505;51.114;13.128;2023-07-20T00:53:20;99166.00;;;26.10
12875;BMP180;6505;51.114;13.128;2023-07-20T00:55:48;99168.00;;;26.10
12875;BMP180;6505;51.114;13.128;2023-07-20T00:58:16;99163.00;;;26.10
12875;BMP180;6505;51.114;13.128;2023-07-20T01:00:46;99177.00;;;26.10
12875;BMP180;6505;51.114;13.128;2023-07-20T01:03:14;99180.00;;;26.10
12875;BMP180;6505;51.114;13.128;2023-07-20T01:06:01;99171.00;;;26.00
12875;BMP180;6505;51.114;13.128;2023-07-20T01:08:42;99163.00;;;26.00
12875;BMP180;6505;51.114;13.128;2023-07-20T01:11:28;99168.00;;;26.00
12875;BMP180;6505;51.114;13.128;2023-07-20T01:13:59;99174.00;;;26.00
12875;BMP180;6505;51.114;13.128;2023-07-20T01:16:29;99175.00;;;26.00
12875;BMP180;6505;51.114;13.128;2023-07-20T01:18:57;99171.00;;;25.90
12875;BMP180;6505;51.114;13.128;2023-07-20T01:21:32;99174.00;;;25.90
12875;BMP180;6505;51.114;13.128;2023-07-20T01:24:39;99166.00;;;25.90
12875;BMP180;6505;51.114;13.128;2023-07-20T01:28:02;99160.00;;;25.80
12875;BMP180;6505;51.114;13.128;2023-07-20T01:30:50;99154.00;;;25.80
12875;BMP180;6505;51.114;13.128;2023-07-20T01:33:21;99157.00;;;25.80
12875;BMP180;6505;51.114;13.128;2023-07-20T01:35:55;99153.00;;;25.80
12875;BMP180;6505;51.114;13.128;2023-07-20T01:38:25;99167.00;;;25.80
12875;BMP180;6505;51.114;13.128;2023-07-20T01:40:53;99162.00;;;25.80
12875;BMP180;6505;51.114;13.128;2023-07-20T01:43:21;99160.00;;;25.80
12875;BMP180;6505;51.114;13.128;2023-07-20T01:45:49;99154.00;;;25.80
12875;BMP180;6505;51.114;13.128;2023-07-20T01:48:19;99155.00;;;25.80
12875;BMP180;6505;51.114;13.128;2023-07-20T01:50:47;99156.00;;;25.80
12875;BMP180;6505;51.114;13.128;2023-07-20T01:53:15;99148.00;;;25.70
12875;BMP180;6505;51.114;13.128;2023-07-20T01:55:43;99145.00;;;25.70
12875;BMP180;6505;51.114;13.128;2023-07-20T01:58:13;99156.00;;;25.70
12875;BMP180;6505;51.114;13.128;2023-07-20T02:00:41;99163.00;;;25.70
12875;BMP180;6505;51.114;13.128;2023-07-20T02:03:09;99145.00;;;25.70
12875;BMP180;6505;51.114;13.128;2023-07-20T02:05:42;99156.00;;;25.70
12875;BMP180;6505;51.114;13.128;2023-07-20T02:08:10;99156.00;;;25.70
12875;BMP180;6505;51.114;13.128;2023-07-20T02:10:38;99156.00;;;25.70
12875;BMP180;6505;51.114;13.128;2023-07-20T02:13:06;99150.00;;;25.70
12875;BMP180;6505;51.114;13.128;2023-07-20T02:15:34;99155.00;;;25.70
12875;BMP180;6505;51.114;13.128;2023-07-20T02:18:03;99158.00;;;25.60
12875;BMP180;6505;51.114;13.128;2023-07-20T02:20:33;99157.00;;;25.60
12875;BMP180;6505;51.114;13.128;2023-07-20T02:23:03;99162.00;;;25.60
12875;BMP180;6505;51.114;13.128;2023-07-20T02:25:31;99163.00;;;25.60
12875;BMP180;6505;51.114;13.128;2023-07-20T02:27:59;99174.00;;;25.60
12875;BMP180;6505;51.114;13.128;2023-07-20T02:30:27;99172.00;;;25.60
12875;BMP180;6505;51.114;13.128;2023-07-20T02:32:55;99165.00;;;25.60
12875;BMP180;6505;51.114;13.128;2023-07-20T02:35:25;99157.00;;;25.60
12875;BMP180;6505;51.114;13.128;2023-07-20T02:37:53;99174.00;;;25.50
12875;BMP180;6505;51.114;13.128;2023-07-20T02:40:23;99179.00;;;25.50
12875;BMP180;6505;51.114;13.128;2023-07-20T02:42:51;99177.00;;;25.50
12875;BMP180;6505;51.114;13.128;2023-07-20T02:45:19;99181.00;;;25.50
12875;BMP180;6505;51.114;13.128;2023-07-20T02:47:47;99180.00;;;25.50
12875;BMP180;6505;51.114;13.128;2023-07-20T02:50:15;99188.00;;;25.50
12875;BMP180;6505;51.114;13.128;2023-07-20T02:52:44;99187.00;;;25.50
12875;BMP180;6505;51.114;13.128;2023-07-20T02:55:12;99181.00;;;25.50
12875;BMP180;6505;51.114;13.128;2023-07-20T02:57:41;99181.00;;;25.40
12875;BMP180;6505;51.114;13.128;2023-07-20T03:00:11;99180.00;;;25.40
12875;BMP180;6505;51.114;13.128;2023-07-20T03:02:42;99190.00;;;25.40
12875;BMP180;6505;51.114;13.128;2023-07-20T03:05:10;99187.00;;;25.40
12875;BMP180;6505;51.114;13.128;2023-07-20T03:07:39;99193.00;;;25.40
12875;BMP180;6505;51.114;13.128;2023-07-20T03:10:08;99192.00;;;25.40
12875;BMP180;6505;51.114;13.128;2023-07-20T03:12:36;99194.00;;;25.40
12875;BMP180;6505;51.114;13.128;2023-07-20T03:15:08;99192.00;;;25.30
12875;BMP180;6505;51.114;13.128;2023-07-20T03:17:36;99194.00;;;25.40
12875;BMP180;6505;51.114;13.128;2023-07-20T03:20:06;99198.00;;;25.30
12875;BMP180;6505;51.114;13.128;2023-07-20T03:22:37;99196.00;;;25.30
12875;BMP180;6505;51.114;13.128;2023-07-20T03:25:06;99199.00;;;25.30
12875;BMP180;6505;51.114;13.128;2023-07-20T03:27:35;99200.00;;;25.30
12875;BMP180;6505;51.114;13.128;2023-07-20T03:30:06;99204.00;;;25.30
12875;BMP180;6505;51.114;13.128;2023-07-20T03:32:36;99200.00;;;25.30
12875;BMP180;6505;51.114;13.128;2023-07-20T03:35:06;99197.00;;;25.20
12875;BMP180;6505;51.114;13.128;2023-07-20T03:37:35;99206.00;;;25.20
12875;BMP180;6505;51.114;13.128;2023-07-20T03:40:06;99206.00;;;25.20
12875;BMP180;6505;51.114;13.128;2023-07-20T03:42:35;99214.00;;;25.20
12875;BMP180;6505;51.114;13.128;2023-07-20T03:45:05;99206.00;;;25.20
12875;BMP180;6505;51.114;13.128;2023-07-20T03:47:34;99208.00;;;25.20
12875;BMP180;6505;51.114;13.128;2023-07-20T03:50:03;99201.00;;;25.20
12875;BMP180;6505;51.114;13.128;2023-07-20T03:52:32;99208.00;;;25.20
12875;BMP180;6505;51.114;13.128;2023-07-20T03:55:00;99206.00;;;25.20
12875;BMP180;6505;51.114;13.128;2023-07-20T03:57:29;99206.00;;;25.20
12875;BMP180;6505;51.114;13.128;2023-07-20T03:59:59;99206.00;;;25.10
12875;BMP180;6505;51.114;13.128;2023-07-20T04:02:29;99211.00;;;25.10
12875;BMP180;6505;51.114;13.128;2023-07-20T04:04:58;99206.00;;;25.10
12875;BMP180;6505;51.114;13.128;2023-07-20T04:07:26;99206.00;;;25.10
12875;BMP180;6505;51.114;13.128;2023-07-20T04:09:54;99202.00;;;25.10
12875;BMP180;6505;51.114;13.128;2023-07-20T04:12:23;99201.00;;;25.10
12875;BMP180;6505;51.114;13.128;2023-07-20T04:14:51;99204.00;;;25.10
12875;BMP180;6505;51.114;13.128;2023-07-20T04:17:19;99213.00;;;25.10
12875;BMP180;6505;51.114;13.128;2023-07-20T04:19:48;99215.00;;;25.10
12875;BMP180;6505;51.114;13.128;2023-07-20T04:22:16;99214.00;;;25.10
12875;BMP180;6505;51.114;13.128;2023-07-20T04:24:45;99206.00;;;25.10
12875;BMP180;6505;51.114;13.128;2023-07-20T04:27:13;99215.00;;;25.10
12875;BMP180;6505;51.114;13.128;2023-07-20T04:29:41;99213.00;;;25.10
12875;BMP180;6505;51.114;13.128;2023-07-20T04:32:09;99210.00;;;25.10
12875;BMP180;6505;51.114;13.128;2023-07-20T04:34:37;99203.00;;;25.10
12875;BMP180;6505;51.114;13.128;2023-07-20T04:37:07;99215.00;;;25.00
12875;BMP180;6505;51.114;13.128;2023-07-20T04:39:35;99210.00;;;25.10
12875;BMP180;6505;51.114;13.128;2023-07-20T04:42:08;99209.00;;;25.10
12875;BMP180;6505;51.114;13.128;2023-07-20T04:44:36;99213.00;;;25.10
12875;BMP180;6505;51.114;13.128;2023-07-20T04:47:05;99212.00;;;25.10
12875;BMP180;6505;51.114;13.128;2023-07-20T04:49:36;99203.00;;;25.10
12875;BMP180;6505;51.114;13.128;2023-07-20T04:52:06;99207.00;;;25.00
12875;BMP180;6505;51.114;13.128;2023-07-20T04:54:35;99210.00;;;25.00
12875;BMP180;6505;51.114;13.128;2023-07-20T04:57:05;99214.00;;;25.00
12875;BMP180;6505;51.114;13.128;2023-07-20T04:59:39;99209.00;;;25.10
12875;BMP180;6505;51.114;13.128;2023-07-20T05:02:07;99214.00;;;25.00
12875;BMP180;6505;51.114;13.128;2023-07-20T05:04:35;99213.00;;;25.10
12875;BMP180;6505;51.114;13.128;2023-07-20T05:07:07;99220.00;;;25.00
12875;BMP180;6505;51.114;13.128;2023-07-20T05:09:35;99215.00;;;25.10
12875;BMP180;6505;51.114;13.128;2023-07-20T05:12:04;99224.00;;;25.10
12875;BMP180;6505;51.114;13.128;2023-07-20T05:14:32;99228.00;;;25.10
12875;BMP180;6505;51.114;13.128;2023-07-20T05:17:00;99218.00;;;25.10
12875;BMP180;6505;51.114;13.128;2023-07-20T05:19:29;99217.00;;;25.10
12875;BMP180;6505;51.114;13.128;2023-07-20T05:21:57;99218.00;;;25.10
12875;BMP180;6505;51.114;13.128;2023-07-20T05:24:26;99234.00;;;25.10
12875;BMP180;6505;51.114;13.128;2023-07-20T05:26:54;99243.00;;;25.10
12875;BMP180;6505;51.114;13.128;2023-07-20T05:29:22;99241.00;;;25.10
12875;BMP180;6505;51.114;13.128;2023-07-20T05:31:50;99233.00;;;25.10
12875;BMP180;6505;51.114;13.128;2023-07-20T05:34:19;99227.00;;;25.10
12875;BMP180;6505;51.114;13.128;2023-07-20T05:36:47;99227.00;;;25.10
12875;BMP180;6505;51.114;13.128;2023-07-20T05:39:17;99229.00;;;25.10
12875;BMP180;6505;51.114;13.128;2023-07-20T05:41:47;99233.00;;;25.10
12875;BMP180;6505;51.114;13.128;2023-07-20T05:44:15;99232.00;;;25.00
12875;BMP180;6505;51.114;13.128;2023-07-20T05:46:43;99232.00;;;25.10
12875;BMP180;6505;51.114;13.128;2023-07-20T05:49:23;99238.00;;;25.10
12875;BMP180;6505;51.114;13.128;2023-07-20T05:51:52;99243.00;;;25.10
12875;BMP180;6505;51.114;13.128;2023-07-20T05:54:20;99244.00;;;25.10
12875;BMP180;6505;51.114;13.128;2023-07-20T05:56:49;99239.00;;;25.00
12875;BMP180;6505;51.114;13.128;2023-07-20T05:59:17;99241.00;;;25.10
12875;BMP180;6505;51.114;13.128;2023-07-20T06:01:46;99241.00;;;25.10
12875;BMP180;6505;51.114;13.128;2023-07-20T06:04:16;99244.00;;;25.10
12875;BMP180;6505;51.114;13.128;2023-07-20T06:06:44;99246.00;;;25.10
12875;BMP180;6505;51.114;13.128;2023-07-20T06:09:13;99247.00;;;25.10
12875;BMP180;6505;51.114;13.128;2023-07-20T06:11:41;99246.00;;;25.10
12875;BMP180;6505;51.114;13.128;2023-07-20T06:14:11;99244.00;;;25.10
12875;BMP180;6505;51.114;13.128;2023-07-20T06:16:40;99244.00;;;25.10
12875;BMP180;6505;51.114;13.128;2023-07-20T06:19:09;99245.00;;;25.10
12875;BMP180;6505;51.114;13.128;2023-07-20T06:21:40;99249.00;;;25.00
12875;BMP180;6505;51.114;13.128;2023-07-20T06:24:10;99250.00;;;25.10
12875;BMP180;6505;51.114;13.128;2023-07-20T06:26:40;99253.00;;;25.00
12875;BMP180;6505;51.114;13.128;2023-07-20T06:29:11;99260.00;;;25.00
12875;BMP180;6505;51.114;13.128;2023-07-20T06:31:42;99266.00;;;25.10
12875;BMP180;6505;51.114;13.128;2023-07-20T06:34:12;99261.00;;;25.00
12875;BMP180;6505;51.114;13.128;2023-07-20T06:36:42;99260.00;;;25.10
12875;BMP180;6505;51.114;13.128;2023-07-20T06:39:12;99262.00;;;25.10
12875;BMP180;6505;51.114;13.128;2023-07-20T06:41:45;99262.00;;;25.10
12875;BMP180;6505;51.114;13.128;2023-07-20T06:44:15;99265.00;;;25.00
12875;BMP180;6505;51.114;13.128;2023-07-20T06:46:45;99261.00;;;25.10
12875;BMP180;6505;51.114;13.128;2023-07-20T06:49:25;99264.00;;;25.00
12875;BMP180;6505;51.114;13.128;2023-07-20T06:51:55;99257.00;;;25.10
12875;BMP180;6505;51.114;13.128;2023-07-20T06:54:24;99258.00;;;25.10
12875;BMP180;6505;51.114;13.128;2023-07-20T06:56:53;99263.00;;;25.10
12875;BMP180;6505;51.114;13.128;2023-07-20T06:59:27;99267.00;;;25.10
12875;BMP180;6505;51.114;13.128;2023-07-20T07:01:57;99264.00;;;25.10
12875;BMP180;6505;51.114;13.128;2023-07-20T07:04:27;99262.00;;;25.10
12875;BMP180;6505;51.114;13.128;2023-07-20T07:07:00;99267.00;;;25.10
12875;BMP180;6505;51.114;13.128;2023-07-20T07:09:34;99269.00;;;25.10
12875;BMP180;6505;51.114;13.128;2023-07-20T07:12:07;99264.00;;;25.10
12875;BMP180;6505;51.114;13.128;2023-07-20T07:14:41;99269.00;;;25.10
12875;BMP180;6505;51.114;13.128;2023-07-20T07:17:11;99275.00;;;25.10
12875;BMP180;6505;51.114;13.128;2023-07-20T07:19:46;99268.00;;;25.10
12875;BMP180;6505;51.114;13.128;2023-07-20T07:22:16;99271.00;;;25.20
12875;BMP180;6505;51.114;13.128;2023-07-20T07:24:46;99274.00;;;25.20
12875;BMP180;6505;51.114;13.128;2023-07-20T07:27:16;99266.00;;;25.20
12875;BMP180;6505;51.114;13.128;2023-07-20T07:29:47;99274.00;;;25.20
12875;BMP180;6505;51.114;13.128;2023-07-20T07:32:17;99274.00;;;25.20
12875;BMP180;6505;51.114;13.128;2023-07-20T07:34:47;99274.00;;;25.30
12875;BMP180;6505;51.114;13.128;2023-07-20T07:37:17;99272.00;;;25.30
12875;BMP180;6505;51.114;13.128;2023-07-20T07:39:48;99271.00;;;25.30
12875;BMP180;6505;51.114;13.128;2023-07-20T07:42:18;99265.00;;;25.30
12875;BMP180;6505;51.114;13.128;2023-07-20T07:44:52;99268.00;;;25.30
12875;BMP180;6505;51.114;13.128;2023-07-20T07:47:22;99266.00;;;25.40
12875;BMP180;6505;51.114;13.128;2023-07-20T07:49:52;99271.00;;;25.40
12875;BMP180;6505;51.114;13.128;2023-07-20T07:52:25;99274.00;;;25.40
12875;BMP180;6505;51.114;13.128;2023-07-20T07:55:05;99270.00;;;25.50
12875;BMP180;6505;51.114;13.128;2023-07-20T07:57:39;99267.00;;;25.50
12875;BMP180;6505;51.114;13.128;2023-07-20T08:00:20;99265.00;;;25.60
12875;BMP180;6505;51.114;13.128;2023-07-20T08:02:55;99262.00;;;25.60
12875;BMP180;6505;51.114;13.128;2023-07-20T08:05:29;99259.00;;;25.60
12875;BMP180;6505;51.114;13.128;2023-07-20T08:08:03;99254.00;;;25.70
12875;BMP180;6505;51.114;13.128;2023-07-20T08:10:37;99254.00;;;25.70
12875;BMP180;6505;51.114;13.128;2023-07-20T08:13:10;99267.00;;;25.70
12875;BMP180;6505;51.114;13.128;2023-07-20T08:15:50;99271.00;;;25.80
12875;BMP180;6505;51.114;13.128;2023-07-20T08:18:22;99267.00;;;25.80
12875;BMP180;6505;51.114;13.128;2023-07-20T08:20:54;99264.00;;;25.80
12875;BMP180;6505;51.114;13.128;2023-07-20T08:23:26;99265.00;;;25.80
12875;BMP180;6505;51.114;13.128;2023-07-20T08:26:03;99267.00;;;25.90
12875;BMP180;6505;51.114;13.128;2023-07-20T08:28:38;99275.00;;;25.90
12875;BMP180;6505;51.114;13.128;2023-07-20T08:31:11;99270.00;;;25.90
12875;BMP180;6505;51.114;13.128;2023-07-20T08:33:45;99272.00;;;25.90
12875;BMP180;6505;51.114;13.128;2023-07-20T08:36:18;99265.00;;;26.00
12875;BMP180;6505;51.114;13.128;2023-07-20T08:38:49;99265.00;;;26.00
12875;BMP180;6505;51.114;13.128;2023-07-20T08:41:21;99260.00;;;26.00
12875;BMP180;6505;51.114;13.128;2023-07-20T08:43:54;99267.00;;;26.00
12875;BMP180;6505;51.114;13.128;2023-07-20T08:46:30;99268.00;;;26.10
12875;BMP180;6505;51.114;13.128;2023-07-20T08:49:03;99274.00;;;26.10
12875;BMP180;6505;51.114;13.128;2023-07-20T08:51:38;99282.00;;;26.10
12875;BMP180;6505;51.114;13.128;2023-07-20T08:54:13;99279.00;;;26.20
12875;BMP180;6505;51.114;13.128;2023-07-20T08:56:47;99276.00;;;26.20
12875;BMP180;6505;51.114;13.128;2023-07-20T08:59:20;99285.00;;;26.20
12875;BMP180;6505;51.114;13.128;2023-07-20T09:01:58;99280.00;;;26.20
12875;BMP180;6505;51.114;13.128;2023-07-20T09:04:29;99281.00;;;26.20
12875;BMP180;6505;51.114;13.128;2023-07-20T09:07:01;99277.00;;;26.20
12875;BMP180;6505;51.114;13.128;2023-07-20T09:09:31;99273.00;;;26.30
12875;BMP180;6505;51.114;13.128;2023-07-20T09:12:02;99274.00;;;26.30
12875;BMP180;6505;51.114;13.128;2023-07-20T09:14:37;99272.00;;;26.30
12875;BMP180;6505;51.114;13.128;2023-07-20T09:17:13;99273.00;;;26.30
12875;BMP180;6505;51.114;13.128;2023-07-20T09:19:48;99268.00;;;26.30
12875;BMP180;6505;51.114;13.128;2023-07-20T09:22:18;99278.00;;;26.40
12875;BMP180;6505;51.114;13.128;2023-07-20T09:24:48;99267.00;;;26.40
12875;BMP180;6505;51.114;13.128;2023-07-20T09:27:18;99275.00;;;26.40
12875;BMP180;6505;51.114;13.128;2023-07-20T09:29:51;99274.00;;;26.40
12875;BMP180;6505;51.114;13.128;2023-07-20T09:32:22;99271.00;;;26.40
12875;BMP180;6505;51.114;13.128;2023-07-20T09:34:52;99267.00;;;26.50
12875;BMP180;6505;51.114;13.128;2023-07-20T09:37:22;99261.00;;;26.50
12875;BMP180;6505;51.114;13.128;2023-07-20T09:39:53;99261.00;;;26.50
12875;BMP180;6505;51.114;13.128;2023-07-20T09:42:27;99267.00;;;26.50
12875;BMP180;6505;51.114;13.128;2023-07-20T09:45:01;99271.00;;;26.50
12875;BMP180;6505;51.114;13.128;2023-07-20T09:47:37;99274.00;;;26.50
12875;BMP180;6505;51.114;13.128;2023-07-20T09:50:08;99268.00;;;26.60
12875;BMP180;6505;51.114;13.128;2023-07-20T09:52:43;99276.00;;;26.60
12875;BMP180;6505;51.114;13.128;2023-07-20T09:55:17;99266.00;;;26.60
12875;BMP180;6505;51.114;13.128;2023-07-20T09:57:51;99274.00;;;26.60
12875;BMP180;6505;51.114;13.128;2023-07-20T10:00:24;99273.00;;;26.60
12875;BMP180;6505;51.114;13.128;2023-07-20T10:03:02;99277.00;;;26.60
12875;BMP180;6505;51.114;13.128;2023-07-20T10:05:36;99269.00;;;26.60
12875;BMP180;6505;51.114;13.128;2023-07-20T10:08:12;99277.00;;;26.60
12875;BMP180;6505;51.114;13.128;2023-07-20T10:10:47;99271.00;;;26.60
12875;BMP180;6505;51.114;13.128;2023-07-20T10:13:26;99282.00;;;26.60
12875;BMP180;6505;51.114;13.128;2023-07-20T10:16:02;99281.00;;;26.60
12875;BMP180;6505;51.114;13.128;2023-07-20T10:18:42;99287.00;;;26.60
12875;BMP180;6505;51.114;13.128;2023-07-20T10:21:18;99271.00;;;26.60
12875;BMP180;6505;51.114;13.128;2023-07-20T10:23:55;99278.00;;;26.60
12875;BMP180;6505;51.114;13.128;2023-07-20T10:26:26;99279.00;;;26.60
12875;BMP180;6505;51.114;13.128;2023-07-20T10:28:57;99282.00;;;26.60
12875;BMP180;6505;51.114;13.128;2023-07-20T10:31:28;99282.00;;;26.60
12875;BMP180;6505;51.114;13.128;2023-07-20T10:33:58;99272.00;;;26.60
12875;BMP180;6505;51.114;13.128;2023-07-20T10:36:28;99278.00;;;26.60
12875;BMP180;6505;51.114;13.128;2023-07-20T10:38:59;99279.00;;;26.60
12875;BMP180;6505;51.114;13.128;2023-07-20T10:41:33;99269.00;;;26.60
12875;BMP180;6505;51.114;13.128;2023-07-20T10:44:04;99271.00;;;26.60
12875;BMP180;6505;51.114;13.128;2023-07-20T10:46:43;99278.00;;;26.50
12875;BMP180;6505;51.114;13.128;2023-07-20T10:49:15;99278.00;;;26.60
12875;BMP180;6505;51.114;13.128;2023-07-20T10:51:45;99266.00;;;26.60
12875;BMP180;6505;51.114;13.128;2023-07-20T10:54:35;99275.00;;;26.50
12875;BMP180;6505;51.114;13.128;2023-07-20T10:57:28;99275.00;;;26.50
12875;BMP180;6505;51.114;13.128;2023-07-20T11:00:11;99269.00;;;26.50
12875;BMP180;6505;51.114;13.128;2023-07-20T11:02:45;99282.00;;;26.50
12875;BMP180;6505;51.114;13.128;2023-07-20T11:05:36;99265.00;;;26.50
12875;BMP180;6505;51.114;13.128;2023-07-20T11:08:11;99275.00;;;26.50
12875;BMP180;6505;51.114;13.128;2023-07-20T11:10:40;99279.00;;;26.50
12875;BMP180;6505;51.114;13.128;2023-07-20T11:13:23;99272.00;;;26.50
12875;BMP180;6505;51.114;13.128;2023-07-20T11:16:03;99269.00;;;26.50
12875;BMP180;6505;51.114;13.128;2023-07-20T11:18:35;99289.00;;;26.50
12875;BMP180;6505;51.114;13.128;2023-07-20T11:21:12;99274.00;;;26.50
12875;BMP180;6505;51.114;13.128;2023-07-20T11:23:43;99270.00;;;26.50
12875;BMP180;6505;51.114;13.128;2023-07-20T11:26:13;99276.00;;;26.50
12875;BMP180;6505;51.114;13.128;2023-07-20T11:28:43;99276.00;;;26.50
12875;BMP180;6505;51.114;13.128;2023-07-20T11:31:14;99273.00;;;26.40
12875;BMP180;6505;51.114;13.128;2023-07-20T11:33:44;99309.00;;;26.40
12875;BMP180;6505;51.114;13.128;2023-07-20T11:36:14;99317.00;;;26.40
12875;BMP180;6505;51.114;13.128;2023-07-20T11:38:46;99323.00;;;26.40
12875;BMP180;6505;51.114;13.128;2023-07-20T11:41:15;99319.00;;;26.40
12875;BMP180;6505;51.114;13.128;2023-07-20T11:43:45;99341.00;;;26.40
12875;BMP180;6505;51.114;13.128;2023-07-20T11:46:14;99340.00;;;26.40
12875;BMP180;6505;51.114;13.128;2023-07-20T11:48:44;99326.00;;;26.40
12875;BMP180;6505;51.114;13.128;2023-07-20T11:51:17;99332.00;;;26.30
12875;BMP180;6505;51.114;13.128;2023-07-20T11:53:47;99333.00;;;26.30
12875;BMP180;6505;51.114;13.128;2023-07-20T11:56:15;99343.00;;;26.30
12875;BMP180;6505;51.114;13.128;2023-07-20T11:58:45;99344.00;;;26.30
12875;BMP180;6505;51.114;13.128;2023-07-20T12:01:14;99355.00;;;26.30
12875;BMP180;6505;51.114;13.128;2023-07-20T12:03:43;99348.00;;;26.20
12875;BMP180;6505;51.114;13.128;2023-07-20T12:06:14;99362.00;;;26.20
12875;BMP180;6505;51.114;13.128;2023-07-20T12:08:44;99348.00;;;26.20
12875;BMP180;6505;51.114;13.128;2023-07-20T12:11:13;99355.00;;;26.10
12875;BMP180;6505;51.114;13.128;2023-07-20T12:13:43;99354.00;;;26.20
12875;BMP180;6505;51.114;13.128;2023-07-20T12:16:14;99354.00;;;26.10
12875;BMP180;6505;51.114;13.128;2023-07-20T12:18:44;99349.00;;;26.10
12875;BMP180;6505;51.114;13.128;2023-07-20T12:21:12;99347.00;;;26.10
12875;BMP180;6505;51.114;13.128;2023-07-20T12:23:41;99337.00;;;26.10
12875;BMP180;6505;51.114;13.128;2023-07-20T12:26:13;99336.00;;;26.10
12875;BMP180;6505;51.114;13.128;2023-07-20T12:28:42;99331.00;;;26.10
12875;BMP180;6505;51.114;13.128;2023-07-20T12:31:10;99327.00;;;26.10
12875;BMP180;6505;51.114;13.128;2023-07-20T12:33:40;99318.00;;;26.10
12875;BMP180;6505;51.114;13.128;2023-07-20T12:36:09;99323.00;;;26.00
12875;BMP180;6505;51.114;13.128;2023-07-20T12:38:38;99310.00;;;26.00
12875;BMP180;6505;51.114;13.128;2023-07-20T12:41:06;99326.00;;;26.00
12875;BMP180;6505;51.114;13.128;2023-07-20T12:43:35;99316.00;;;26.00
12875;BMP180;6505;51.114;13.128;2023-07-20T12:46:04;99311.00;;;26.00
12875;BMP180;6505;51.114;13.128;2023-07-20T12:48:32;99316.00;;;26.00
12875;BMP180;6505;51.114;13.128;2023-07-20T12:51:01;99315.00;;;26.00
12875;BMP180;6505;51.114;13.128;2023-07-20T12:53:31;99308.00;;;26.00
12875;BMP180;6505;51.114;13.128;2023-07-20T12:56:00;99307.00;;;26.00
12875;BMP180;6505;51.114;13.128;2023-07-20T12:58:50;99309.00;;;25.90
12875;BMP180;6505;51.114;13.128;2023-07-20T13:01:18;99313.00;;;26.00
12875;BMP180;6505;51.114;13.128;2023-07-20T13:03:46;99306.00;;;25.90
12875;BMP180;6505;51.114;13.128;2023-07-20T13:06:17;99314.00;;;25.90
12875;BMP180;6505;51.114;13.128;2023-07-20T13:08:49;99324.00;;;25.90
12875;BMP180;6505;51.114;13.128;2023-07-20T13:11:18;99325.00;;;25.90
12875;BMP180;6505;51.114;13.128;2023-07-20T13:13:46;99328.00;;;25.90
12875;BMP180;6505;51.114;13.128;2023-07-20T13:16:15;99320.00;;;25.90
12875;BMP180;6505;51.114;13.128;2023-07-20T13:18:43;99319.00;;;25.90
12875;BMP180;6505;51.114;13.128;2023-07-20T13:21:12;99318.00;;;25.90
12875;BMP180;6505;51.114;13.128;2023-07-20T13:23:40;99322.00;;;25.90
12875;BMP180;6505;51.114;13.128;2023-07-20T13:26:08;99318.00;;;25.90
12875;BMP180;6505;51.114;13.128;2023-07-20T13:28:36;99323.00;;;25.90
12875;BMP180;6505;51.114;13.128;2023-07-20T13:31:04;99309.00;;;25.90
12875;BMP180;6505;51.114;13.128;2023-07-20T13:33:33;99314.00;;;25.90
12875;BMP180;6505;51.114;13.128;2023-07-20T13:36:06;99314.00;;;25.90
12875;BMP180;6505;51.114;13.128;2023-07-20T13:38:35;99322.00;;;25.90
12875;BMP180;6505;51.114;13.128;2023-07-20T13:41:03;99315.00;;;25.90
12875;BMP180;6505;51.114;13.128;2023-07-20T13:43:31;99310.00;;;25.90
12875;BMP180;6505;51.114;13.128;2023-07-20T13:45:59;99317.00;;;25.90
12875;BMP180;6505;51.114;13.128;2023-07-20T13:48:27;99315.00;;;25.90
12875;BMP180;6505;51.114;13.128;2023-07-20T13:50:56;99307.00;;;25.90
12875;BMP180;6505;51.114;13.128;2023-07-20T13:53:27;99305.00;;;25.90
12875;BMP180;6505;51.114;13.128;2023-07-20T13:55:58;99310.00;;;25.90
12875;BMP180;6505;51.114;13.128;2023-07-20T13:58:29;99295.00;;;25.90
12875;BMP180;6505;51.114;13.128;2023-07-20T14:00:58;99304.00;;;25.90
12875;BMP180;6505;51.114;13.128;2023-07-20T14:03:26;99297.00;;;25.90
12875;BMP180;6505;51.114;13.128;2023-07-20T14:05:55;99299.00;;;25.90
12875;BMP180;6505;51.114;13.128;2023-07-20T14:08:27;99299.00;;;25.90
12875;BMP180;6505;51.114;13.128;2023-07-20T14:10:57;99305.00;;;25.90
12875;BMP180;6505;51.114;13.128;2023-07-20T14:13:28;99298.00;;;25.90
12875;BMP180;6505;51.114;13.128;2023-07-20T14:16:13;99298.00;;;25.90
12875;BMP180;6505;51.114;13.128;2023-07-20T14:18:41;99287.00;;;25.90
12875;BMP180;6505;51.114;13.128;2023-07-20T14:21:10;99286.00;;;25.90
12875;BMP180;6505;51.114;13.128;2023-07-20T14:23:38;99298.00;;;25.90
12875;BMP180;6505;51.114;13.128;2023-07-20T14:26:06;99291.00;;;25.90
12875;BMP180;6505;51.114;13.128;2023-07-20T14:28:37;99291.00;;;25.90
12875;BMP180;6505;51.114;13.128;2023-07-20T14:31:05;99289.00;;;25.90